createdAt,value
2023-01-31T00:00:09.337Z,2.85
2023-01-31T00:02:37.641Z,1.13
2023-01-31T00:05:06.226Z,1.30
2023-01-31T00:07:34.917Z,2.15
2023-01-31T00:10:04.715Z,1.23
2023-01-31T00:12:32.991Z,1.80
2023-01-31T00:15:01.395Z,1.75
2023-01-31T00:17:29.985Z,2.15
2023-01-31T00:19:58.199Z,1.30
2023-01-31T00:22:26.333Z,3.03
2023-01-31T00:24:54.509Z,1.17
2023-01-31T00:27:24.062Z,2.08
2023-01-31T00:29:52.557Z,2.03
2023-01-31T00:32:20.808Z,1.88
2023-01-31T00:34:48.901Z,1.60
2023-01-31T00:37:17.554Z,1.80
2023-01-31T00:39:45.722Z,1.55
2023-01-31T00:42:13.784Z,2.10
2023-01-31T00:44:43.339Z,1.38
2023-01-31T00:47:11.441Z,1.08
2023-01-31T00:49:39.615Z,1.85
2023-01-31T00:52:07.717Z,2.00
2023-01-31T00:54:35.783Z,1.45
2023-01-31T00:57:03.907Z,1.45
2023-01-31T00:59:32.060Z,1.95
2023-01-31T01:02:01.638Z,1.45
2023-01-31T01:04:29.834Z,1.83
2023-01-31T01:06:58.080Z,1.60
2023-01-31T01:09:26.903Z,1.42
2023-01-31T01:11:55.399Z,1.38
2023-01-31T01:14:23.529Z,1.45
2023-01-31T01:16:51.784Z,1.70
2023-01-31T01:19:21.821Z,1.40
2023-01-31T01:21:50.031Z,1.90
2023-01-31T01:24:20.129Z,2.17
2023-01-31T01:26:48.739Z,2.10
2023-01-31T01:29:16.910Z,1.50
2023-01-31T01:31:45.266Z,1.42
2023-01-31T01:34:15.913Z,1.60
2023-01-31T01:36:47.999Z,2.07
2023-01-31T01:39:16.692Z,1.60
2023-01-31T01:41:45.828Z,1.85
2023-01-31T01:44:46.917Z,1.27
2023-01-31T01:47:24.764Z,2.10
2023-01-31T01:49:56.593Z,1.50
2023-01-31T01:52:28.961Z,1.27
2023-01-31T01:55:00.859Z,1.75
2023-01-31T01:57:34.191Z,1.75
2023-01-31T02:00:11.074Z,1.30
2023-01-31T02:02:39.382Z,1.58
2023-01-31T02:05:09.745Z,1.20
2023-01-31T02:07:39.622Z,1.38
2023-01-31T02:10:13.620Z,1.38
2023-01-31T02:12:42.285Z,2.22
2023-01-31T02:15:11.559Z,1.30
2023-01-31T02:17:40.231Z,1.30
2023-01-31T02:20:31.848Z,1.60
2023-01-31T02:23:26.276Z,1.42
2023-01-31T02:26:29.343Z,1.42
2023-01-31T02:29:26.605Z,1.58
2023-01-31T02:32:32.115Z,1.40
2023-01-31T02:35:08.204Z,1.38
2023-01-31T02:37:44.245Z,1.35
2023-01-31T02:40:21.743Z,0.90
2023-01-31T02:42:56.432Z,1.10
2023-01-31T02:45:35.460Z,0.93
2023-01-31T02:48:13.091Z,0.90
2023-01-31T02:50:49.203Z,1.02
2023-01-31T02:53:23.687Z,0.80
2023-01-31T02:56:14.615Z,1.08
2023-01-31T02:58:48.940Z,0.97
2023-01-31T03:01:23.332Z,0.65
2023-01-31T03:03:52.881Z,1.02
2023-01-31T03:06:54.774Z,0.55
2023-01-31T03:09:31.814Z,1.60
2023-01-31T03:12:05.975Z,0.80
2023-01-31T03:14:40.358Z,0.70
2023-01-31T03:17:33.155Z,0.65
2023-01-31T03:20:08.008Z,0.63
2023-01-31T03:22:41.000Z,0.60
2023-01-31T03:25:13.029Z,0.80
2023-01-31T03:27:46.387Z,0.50
2023-01-31T03:30:18.629Z,0.80
2023-01-31T03:32:52.584Z,0.70
2023-01-31T03:35:23.298Z,0.73
2023-01-31T03:37:58.417Z,0.90
2023-01-31T03:40:31.885Z,0.88
2023-01-31T03:43:06.648Z,0.63
2023-01-31T03:45:39.861Z,0.68
2023-01-31T03:48:14.417Z,0.52
2023-01-31T03:50:45.651Z,0.80
2023-01-31T03:53:19.480Z,0.52
2023-01-31T03:55:53.529Z,0.60
2023-01-31T03:58:27.920Z,0.40
2023-01-31T04:00:59.214Z,0.65
2023-01-31T04:03:33.168Z,0.68
2023-01-31T04:06:01.317Z,0.70
2023-01-31T04:08:32.556Z,0.82
2023-01-31T04:11:02.200Z,0.50
2023-01-31T04:13:30.398Z,0.60
2023-01-31T04:15:58.585Z,0.47
2023-01-31T04:18:26.809Z,0.38
2023-01-31T04:20:55.140Z,0.50
2023-01-31T04:23:25.119Z,0.35
2023-01-31T04:25:56.130Z,1.00
2023-01-31T04:28:24.609Z,1.35
2023-01-31T04:30:55.438Z,2.30
2023-01-31T04:33:23.899Z,2.67
2023-01-31T04:35:52.992Z,2.60
2023-01-31T04:38:21.311Z,3.10
2023-01-31T04:40:49.666Z,3.35
2023-01-31T04:43:19.113Z,4.45
2023-01-31T04:45:47.436Z,4.40
2023-01-31T04:48:15.528Z,6.00
2023-01-31T04:50:43.616Z,5.40
2023-01-31T04:53:12.064Z,5.55
2023-01-31T04:55:40.310Z,5.28
2023-01-31T04:58:08.793Z,6.18
2023-01-31T05:00:38.428Z,6.15
2023-01-31T05:03:07.372Z,6.32
2023-01-31T05:05:38.764Z,6.35
2023-01-31T05:08:07.763Z,4.93
2023-01-31T05:10:37.308Z,6.25
2023-01-31T05:13:06.005Z,4.53
2023-01-31T05:15:36.380Z,4.18
2023-01-31T05:18:06.693Z,5.53
2023-01-31T05:20:39.839Z,5.97
2023-01-31T05:23:10.980Z,4.25
2023-01-31T05:25:39.247Z,3.63
2023-01-31T05:28:07.408Z,4.28
2023-01-31T05:30:38.595Z,4.60
2023-01-31T05:33:08.373Z,4.50
2023-01-31T05:35:36.461Z,5.30
2023-01-31T05:38:04.675Z,5.82
2023-01-31T05:40:32.908Z,4.63
2023-01-31T05:43:02.026Z,5.25
2023-01-31T05:45:31.341Z,4.63
2023-01-31T05:48:00.259Z,6.05
2023-01-31T05:50:29.819Z,6.05
2023-01-31T05:53:01.011Z,4.82
2023-01-31T05:55:29.232Z,4.85
2023-01-31T05:57:57.967Z,5.70
2023-01-31T06:00:27.262Z,5.15
2023-01-31T06:02:59.699Z,5.07
2023-01-31T06:05:29.590Z,5.65
2023-01-31T06:07:57.734Z,5.18
2023-01-31T06:10:25.873Z,5.60
2023-01-31T06:12:54.135Z,4.25
2023-01-31T06:15:22.713Z,5.25
2023-01-31T06:17:51.149Z,7.47
2023-01-31T06:20:19.648Z,5.85
2023-01-31T06:22:49.276Z,5.10
2023-01-31T06:25:17.596Z,5.15
2023-01-31T06:27:45.895Z,7.68
2023-01-31T06:30:14.900Z,4.28
2023-01-31T06:32:42.993Z,3.88
2023-01-31T06:35:11.532Z,4.95
2023-01-31T06:37:39.684Z,6.57
2023-01-31T06:40:10.747Z,6.95
2023-01-31T06:42:38.962Z,7.80
2023-01-31T06:45:07.909Z,5.50
2023-01-31T06:47:36.229Z,5.47
2023-01-31T06:50:04.537Z,4.57
2023-01-31T06:52:32.599Z,5.53
2023-01-31T06:55:00.698Z,4.25
2023-01-31T06:57:30.424Z,4.95
2023-01-31T06:59:58.708Z,5.40
2023-01-31T07:02:27.121Z,5.20
2023-01-31T07:04:55.559Z,6.05
2023-01-31T07:07:23.713Z,6.43
2023-01-31T07:09:52.337Z,5.78
2023-01-31T07:12:20.591Z,4.55
2023-01-31T07:14:50.111Z,4.68
2023-01-31T07:17:18.186Z,5.68
2023-01-31T07:19:46.272Z,5.28
2023-01-31T07:22:14.437Z,6.13
2023-01-31T07:24:42.672Z,4.65
2023-01-31T07:27:13.344Z,5.05
2023-01-31T07:29:41.540Z,5.03
2023-01-31T07:32:11.441Z,6.15
2023-01-31T07:34:39.567Z,5.18
2023-01-31T07:37:07.703Z,4.55
2023-01-31T07:39:35.858Z,4.57
2023-01-31T07:42:03.991Z,4.53
2023-01-31T07:44:32.315Z,5.47
2023-01-31T07:47:00.786Z,5.43
2023-01-31T07:49:30.198Z,4.72
2023-01-31T07:51:58.311Z,3.95
2023-01-31T07:54:26.356Z,4.60
2023-01-31T07:56:54.537Z,3.80
2023-01-31T07:59:22.707Z,5.00
2023-01-31T08:02:08.529Z,4.22
2023-01-31T08:04:38.001Z,5.20
2023-01-31T08:07:07.121Z,6.60
2023-01-31T08:09:35.434Z,5.88
2023-01-31T08:12:03.598Z,5.30
2023-01-31T08:14:33.056Z,5.88
2023-01-31T08:17:01.271Z,6.50
2023-01-31T08:19:29.556Z,4.43
2023-01-31T08:21:59.205Z,5.28
2023-01-31T08:24:27.380Z,4.40
2023-01-31T08:26:55.868Z,4.13
2023-01-31T08:29:24.651Z,5.07
2023-01-31T08:31:53.543Z,5.68
2023-01-31T08:34:23.509Z,5.93
2023-01-31T08:36:51.784Z,3.90
2023-01-31T08:39:21.443Z,5.88
2023-01-31T08:41:49.636Z,5.30
2023-01-31T08:44:17.885Z,5.85
2023-01-31T08:46:46.918Z,5.45
2023-01-31T08:49:15.285Z,5.45
2023-01-31T08:51:43.402Z,5.78
2023-01-31T08:54:12.996Z,7.88
2023-01-31T08:56:42.508Z,4.43
2023-01-31T08:59:11.900Z,4.72
2023-01-31T09:01:42.507Z,6.15
2023-01-31T09:04:10.687Z,4.67
2023-01-31T09:06:38.869Z,4.18
2023-01-31T09:09:07.030Z,5.20
2023-01-31T09:11:36.150Z,5.20
2023-01-31T09:14:05.638Z,5.07
2023-01-31T09:16:33.949Z,4.70
2023-01-31T09:19:02.083Z,4.47
2023-01-31T09:21:30.382Z,5.63
2023-01-31T09:23:59.997Z,3.97
2023-01-31T09:26:28.217Z,4.38
2023-01-31T09:28:58.075Z,5.10
2023-01-31T09:31:27.790Z,4.40
2023-01-31T09:33:56.373Z,4.10
2023-01-31T09:36:25.988Z,3.90
2023-01-31T09:38:59.720Z,4.05
2023-01-31T09:41:34.423Z,4.38
2023-01-31T09:44:10.216Z,4.57
2023-01-31T09:46:43.390Z,5.03
2023-01-31T09:49:19.750Z,5.05
2023-01-31T09:51:58.143Z,5.95
2023-01-31T09:54:33.315Z,4.22
2023-01-31T09:57:09.906Z,4.75
2023-01-31T09:59:46.137Z,4.68
2023-01-31T10:02:48.912Z,4.35
2023-01-31T10:05:30.843Z,4.35
2023-01-31T10:08:08.767Z,4.75
2023-01-31T10:10:42.731Z,4.60
2023-01-31T10:13:17.496Z,3.75
2023-01-31T10:15:49.455Z,4.88
2023-01-31T10:18:25.987Z,4.70
2023-01-31T10:20:57.970Z,4.93
2023-01-31T10:23:31.477Z,5.25
2023-01-31T10:26:02.750Z,3.97
2023-01-31T10:28:37.806Z,4.60
2023-01-31T10:31:13.541Z,5.63
2023-01-31T10:33:52.071Z,4.47
2023-01-31T10:36:28.039Z,4.68
2023-01-31T10:39:04.062Z,5.22
2023-01-31T10:41:42.115Z,4.47
2023-01-31T10:44:21.684Z,4.40
2023-01-31T10:46:50.308Z,4.47
2023-01-31T10:49:25.134Z,6.13
2023-01-31T10:52:09.165Z,5.68
2023-01-31T10:54:49.892Z,4.50
2023-01-31T10:57:18.671Z,6.00
2023-01-31T10:59:48.969Z,4.97
2023-01-31T11:02:22.400Z,4.55
2023-01-31T11:04:54.028Z,5.25
2023-01-31T11:09:54.159Z,5.40
2023-01-31T11:12:23.333Z,5.53
2023-01-31T11:15:08.020Z,4.30
2023-01-31T11:17:38.633Z,5.05
2023-01-31T11:20:23.335Z,6.13
2023-01-31T11:22:53.370Z,6.18
2023-01-31T11:25:23.762Z,4.82
2023-01-31T11:27:55.619Z,4.82
2023-01-31T11:30:28.963Z,4.88
2023-01-31T11:32:58.275Z,6.20
2023-01-31T11:35:30.084Z,5.65
2023-01-31T11:38:00.158Z,5.70
2023-01-31T11:40:31.953Z,4.65
2023-01-31T11:43:01.986Z,4.88
2023-01-31T11:45:33.165Z,4.18
2023-01-31T11:48:12.237Z,6.15
2023-01-31T11:50:44.667Z,5.70
2023-01-31T11:53:20.060Z,4.90
2023-01-31T11:55:50.399Z,5.00
2023-01-31T11:58:22.386Z,4.47
2023-01-31T12:00:57.239Z,4.40
2023-01-31T12:03:26.218Z,5.07
2023-01-31T12:06:03.877Z,5.07
2023-01-31T12:08:35.948Z,4.20
2023-01-31T12:11:06.589Z,4.95
2023-01-31T12:13:48.074Z,6.00
2023-01-31T12:16:20.572Z,6.28
2023-01-31T12:19:01.354Z,5.13
2023-01-31T12:21:53.691Z,6.30
2023-01-31T12:24:35.705Z,4.40
2023-01-31T12:27:12.794Z,4.75
2023-01-31T12:30:09.352Z,5.50
2023-01-31T12:32:52.482Z,4.40
2023-01-31T12:35:33.735Z,5.30
2023-01-31T12:38:19.538Z,4.78
2023-01-31T12:40:55.662Z,4.20
2023-01-31T12:43:44.320Z,4.50
2023-01-31T12:46:19.778Z,4.45
2023-01-31T12:49:05.475Z,3.55
2023-01-31T12:51:46.721Z,4.88
2023-01-31T12:54:35.872Z,5.15
2023-01-31T12:57:15.317Z,3.80
2023-01-31T12:59:52.022Z,5.00
2023-01-31T13:02:42.474Z,3.83
2023-01-31T13:05:22.803Z,4.82
2023-01-31T13:07:56.572Z,5.10
2023-01-31T13:10:36.852Z,3.97
2023-01-31T13:13:07.645Z,3.85
2023-01-31T13:15:42.527Z,4.63
2023-01-31T13:18:13.899Z,4.18
2023-01-31T13:20:48.123Z,3.60
2023-01-31T13:23:23.559Z,4.80
2023-01-31T13:25:58.285Z,4.28
2023-01-31T13:28:30.316Z,4.45
2023-01-31T13:31:00.685Z,3.58
2023-01-31T13:33:34.024Z,3.67
2023-01-31T13:36:11.637Z,5.32
2023-01-31T13:38:43.440Z,3.60
2023-01-31T13:41:20.685Z,4.65
2023-01-31T13:43:48.845Z,3.80
2023-01-31T13:46:24.628Z,3.40
2023-01-31T13:48:58.491Z,3.67
2023-01-31T13:51:32.201Z,4.32
2023-01-31T13:54:07.093Z,3.65
2023-01-31T13:56:38.996Z,3.53
2023-01-31T13:59:10.067Z,3.22
2023-01-31T14:01:47.232Z,2.95
2023-01-31T14:04:40.661Z,5.32
2023-01-31T14:07:24.539Z,3.75
2023-01-31T14:10:28.695Z,3.67
2023-01-31T14:13:27.878Z,3.63
2023-01-31T14:15:57.667Z,3.10
2023-01-31T14:18:43.216Z,3.83
2023-01-31T14:21:45.406Z,3.75
2023-01-31T14:24:22.197Z,4.18
2023-01-31T14:26:55.409Z,4.05
2023-01-31T14:29:27.741Z,3.67
2023-01-31T14:31:58.101Z,3.33
2023-01-31T14:34:29.807Z,5.25
2023-01-31T14:37:15.276Z,4.22
2023-01-31T14:40:03.714Z,3.90
2023-01-31T14:42:58.783Z,4.10
2023-01-31T14:45:52.678Z,3.70
2023-01-31T14:48:34.924Z,2.72
2023-01-31T14:51:13.302Z,3.22
2023-01-31T14:54:14.208Z,4.82
2023-01-31T14:56:55.151Z,4.22
2023-01-31T14:59:31.128Z,4.30
2023-01-31T15:02:01.953Z,4.22
2023-01-31T15:04:30.548Z,4.22
2023-01-31T15:06:59.115Z,3.55
2023-01-31T15:09:46.689Z,2.85
2023-01-31T15:12:50.621Z,3.90
2023-01-31T15:15:27.672Z,4.28
2023-01-31T15:17:57.987Z,5.03
2023-01-31T15:20:34.831Z,3.22
2023-01-31T15:23:09.257Z,3.83
2023-01-31T15:25:44.883Z,3.35
2023-01-31T15:28:17.803Z,3.88
2023-01-31T15:30:46.693Z,4.65
2023-01-31T15:33:22.441Z,3.72
2023-01-31T15:35:55.366Z,3.97
2023-01-31T15:38:30.956Z,3.83
2023-01-31T15:41:20.211Z,3.50
2023-01-31T15:43:49.523Z,3.85
2023-01-31T15:46:24.563Z,4.38
2023-01-31T15:48:54.473Z,3.80
2023-01-31T15:51:23.077Z,3.95
2023-01-31T15:54:02.820Z,5.25
2023-01-31T15:56:31.488Z,4.30
2023-01-31T15:59:00.042Z,3.58
2023-01-31T16:01:31.647Z,3.70
2023-01-31T16:04:01.818Z,3.55
2023-01-31T16:06:34.293Z,3.50
2023-01-31T16:09:04.185Z,3.90
2023-01-31T16:11:34.501Z,3.88
2023-01-31T16:14:05.360Z,4.03
2023-01-31T16:16:36.575Z,4.80
2023-01-31T16:19:07.352Z,4.70
2023-01-31T16:21:39.722Z,3.97
2023-01-31T16:24:16.042Z,2.83
2023-01-31T16:26:58.664Z,4.72
2023-01-31T16:29:40.514Z,3.72
2023-01-31T16:32:18.256Z,3.80
2023-01-31T16:34:54.964Z,4.97
2023-01-31T16:37:32.620Z,3.58
2023-01-31T16:40:05.699Z,5.05
2023-01-31T16:42:35.452Z,4.55
2023-01-31T16:45:04.259Z,3.92
2023-01-31T16:47:34.843Z,4.05
2023-01-31T16:50:43.036Z,4.40
2023-01-31T16:53:24.623Z,3.20
2023-01-31T16:56:18.553Z,3.47
2023-01-31T16:58:53.571Z,3.65
2023-01-31T17:01:25.159Z,3.55
2023-01-31T17:04:18.454Z,3.50
2023-01-31T17:06:51.482Z,5.82
2023-01-31T17:09:22.660Z,5.40
2023-01-31T17:11:50.922Z,4.25
2023-01-31T17:14:18.994Z,3.72
2023-01-31T17:16:47.380Z,4.28
2023-01-31T17:19:16.188Z,5.32
2023-01-31T17:21:47.530Z,5.22
2023-01-31T17:24:18.198Z,4.60
2023-01-31T17:26:46.564Z,4.70
2023-01-31T17:29:14.676Z,4.85
2023-01-31T17:31:43.223Z,4.75
2023-01-31T17:34:14.741Z,4.07
2023-01-31T17:39:12.320Z,3.95
2023-01-31T17:41:41.430Z,10.55
2023-01-31T17:44:14.164Z,6.57
2023-01-31T17:46:43.140Z,4.28
2023-01-31T17:49:11.510Z,4.03
2023-01-31T17:51:40.009Z,4.80
2023-01-31T17:54:08.739Z,4.80
2023-01-31T17:56:38.515Z,4.85
2023-01-31T17:59:08.382Z,4.63
2023-01-31T18:01:36.700Z,5.72
2023-01-31T18:04:05.601Z,5.50
2023-01-31T18:06:33.742Z,4.47
2023-01-31T18:09:04.011Z,5.88
2023-01-31T18:11:32.207Z,4.25
2023-01-31T18:14:03.952Z,4.93
2023-01-31T18:16:32.395Z,5.20
2023-01-31T18:19:00.627Z,4.40
2023-01-31T18:21:28.882Z,6.47
2023-01-31T18:23:58.964Z,5.97
2023-01-31T18:26:27.378Z,6.43
2023-01-31T18:28:57.570Z,4.70
2023-01-31T18:31:27.385Z,4.38
2023-01-31T18:33:55.869Z,5.10
2023-01-31T18:36:24.010Z,5.07
2023-01-31T18:38:52.537Z,5.63
2023-01-31T18:41:22.391Z,5.82
2023-01-31T18:43:50.933Z,5.63
2023-01-31T18:46:19.415Z,5.60
2023-01-31T18:48:49.356Z,4.95
2023-01-31T18:51:18.283Z,5.35
2023-01-31T18:53:47.723Z,5.63
2023-01-31T18:56:17.759Z,4.78
2023-01-31T18:58:47.316Z,6.13
2023-01-31T19:01:17.421Z,5.38
2023-01-31T19:03:46.995Z,4.80
2023-01-31T19:06:18.191Z,4.60
2023-01-31T19:08:48.978Z,5.75
2023-01-31T19:11:18.168Z,4.32
2023-01-31T19:13:46.991Z,4.97
2023-01-31T19:16:16.938Z,3.70
2023-01-31T19:18:45.416Z,5.00
2023-01-31T19:21:18.961Z,4.18
2023-01-31T19:23:48.390Z,4.57
2023-01-31T19:26:17.434Z,4.22
2023-01-31T19:28:47.181Z,4.60
2023-01-31T19:31:17.036Z,4.68
2023-01-31T19:33:49.699Z,4.63
2023-01-31T19:36:20.713Z,4.57
2023-01-31T19:38:49.453Z,5.60
2023-01-31T19:41:21.056Z,4.43
2023-01-31T19:46:18.541Z,4.28
2023-01-31T19:48:47.211Z,3.83
2023-01-31T19:51:17.143Z,4.20
2023-01-31T19:53:47.530Z,4.60
2023-01-31T19:56:16.703Z,4.85
2023-01-31T19:58:45.557Z,4.68
2023-01-31T20:01:16.458Z,3.85
2023-01-31T20:03:45.096Z,3.92
2023-01-31T20:06:14.940Z,4.68
2023-01-31T20:08:43.628Z,5.18
2023-01-31T20:11:13.262Z,4.57
2023-01-31T20:13:42.146Z,5.80
2023-01-31T20:16:12.389Z,4.95
2023-01-31T20:18:43.785Z,3.67
2023-01-31T20:21:15.918Z,4.85
2023-01-31T20:23:45.531Z,4.50
2023-01-31T20:26:16.028Z,4.10
2023-01-31T20:28:44.628Z,5.10
2023-01-31T20:31:15.403Z,4.90
2023-01-31T20:33:44.031Z,4.65
2023-01-31T20:36:13.163Z,5.88
2023-01-31T20:38:41.603Z,4.18
2023-01-31T20:41:10.260Z,5.50
2023-01-31T20:43:39.890Z,4.00
2023-01-31T20:46:09.455Z,3.92
2023-01-31T20:48:37.996Z,4.85
2023-01-31T20:51:07.322Z,4.03
2023-01-31T20:53:35.895Z,5.25
2023-01-31T20:56:05.822Z,3.97
2023-01-31T20:58:35.956Z,4.55
2023-01-31T21:01:06.910Z,4.80
2023-01-31T21:03:35.877Z,4.10
2023-01-31T21:06:05.176Z,4.97
2023-01-31T21:08:35.525Z,3.97
2023-01-31T21:11:07.588Z,4.28
2023-01-31T21:13:35.987Z,4.30
2023-01-31T21:16:07.798Z,4.20
2023-01-31T21:18:38.193Z,4.95
2023-01-31T21:21:08.957Z,3.88
2023-01-31T21:23:38.566Z,4.65
2023-01-31T21:26:08.661Z,4.32
2023-01-31T21:28:37.657Z,4.40
2023-01-31T21:31:12.614Z,5.47
2023-01-31T21:33:41.324Z,4.68
2023-01-31T21:36:11.008Z,5.10
2023-01-31T21:38:39.529Z,4.80
2023-01-31T21:41:25.862Z,4.15
2023-01-31T21:43:54.487Z,4.25
2023-01-31T21:46:24.984Z,4.53
2023-01-31T21:48:53.525Z,5.90
2023-01-31T21:51:25.382Z,3.83
2023-01-31T21:53:54.180Z,4.45
2023-01-31T21:56:23.935Z,5.68
2023-01-31T21:58:54.904Z,3.67
2023-01-31T22:01:26.414Z,4.70
2023-01-31T22:06:27.193Z,5.00
2023-01-31T22:08:58.085Z,5.00
2023-01-31T22:11:28.603Z,6.55
2023-01-31T22:13:56.673Z,5.40
2023-01-31T22:16:26.397Z,4.50
2023-01-31T22:18:54.841Z,4.93
2023-01-31T22:21:25.911Z,4.32
2023-01-31T22:23:55.534Z,4.28
2023-01-31T22:26:25.628Z,5.38
2023-01-31T22:28:57.474Z,4.55
2023-01-31T22:31:27.496Z,5.00
2023-01-31T22:33:56.186Z,6.20
2023-01-31T22:36:25.410Z,5.13
2023-01-31T22:38:54.705Z,9.32
2023-01-31T22:41:23.608Z,6.78
2023-01-31T22:43:56.042Z,7.20
2023-01-31T22:46:27.441Z,5.53
2023-01-31T22:51:26.991Z,3.97
2023-01-31T22:53:55.718Z,3.75
2023-01-31T22:56:25.804Z,3.97
2023-01-31T22:58:56.833Z,3.65
2023-01-31T23:01:28.337Z,4.78
2023-01-31T23:06:26.436Z,4.40
2023-01-31T23:08:58.305Z,3.63
2023-01-31T23:11:34.324Z,3.63
2023-01-31T23:14:03.280Z,4.30
2023-01-31T23:16:46.662Z,4.20
2023-01-31T23:19:16.566Z,4.50
2023-01-31T23:21:45.091Z,3.58
2023-01-31T23:24:14.596Z,4.45
2023-01-31T23:26:43.156Z,4.25
2023-01-31T23:29:11.547Z,3.92
2023-01-31T23:31:41.509Z,7.32
2023-01-31T23:34:09.785Z,3.97
2023-01-31T23:36:38.579Z,4.90
2023-01-31T23:39:07.070Z,4.43
2023-01-31T23:41:35.179Z,3.05
2023-01-31T23:44:03.706Z,3.28
2023-01-31T23:46:31.909Z,3.95
2023-01-31T23:49:01.519Z,3.28
2023-01-31T23:51:31.476Z,3.63
2023-01-31T23:53:59.801Z,3.22
2023-01-31T23:56:27.871Z,4.25
2023-01-31T23:58:56.071Z,4.03
